ASN logo
ASN Wikibase Occurrence # 202375
Last updated: 22 October 2021
This information is added by users of ASN. Neither ASN nor the Flight Safety Foundation are responsible for the completeness or correctness of this information. If you feel this information is incomplete or incorrect, you can submit corrected information.

Date:29-NOV-2017
Time:13:31 UTC
Type:Silhouette image of generic MD11 model; specific model in this crash may look slightly different
McDonnell Douglas MD-11F
Owner/operator:Sky Lease Cargo
Registration: N986AR
MSN: 48426/468
Fatalities:Fatalities: 0 / Occupants:
Other fatalities:0
Aircraft damage: Minor
Location:Sacramento-Mather Airport, CA (MHR/KMHR) -   United States of America
Phase: Landing
Nature:Cargo
Departure airport:Louisville-Standiford Field, KY (SDF/KSDF)
Destination airport:Sacramento-Mather Airport, CA (MHR/KMHR)
Narrative:
Sky Lease Cargo flight GG948 suffered a wing tip strike on landing at Sacramento-Mather Airport, California.

Weather reported about the time of the incident:
KMHR 291445Z 14003KT 1/4SM OVC002 06/06 A3015 FG
> KMHR 291345Z 10005KT 1/2SM OVC001 05/04 A3013 FG
KMHR 291320Z 10005KT 1/2SM BKN001 04/04 A3013 FG
KMHR 291245Z 13004KT 1/4SM SKC 04/04 A3013 FG

Sources:

FAA


Other occurrences involving this aircraft

14 Jan 2003 I-DUPA Alitalia Airlines 0 New York, NY non


Images:

Photo of N986AR courtesy AirHistory.net


Latacunga - Cotopaxi (SELT / LTX)
24 October 2015; (c) Sandro Rota

Revision history:

Date/timeContributorUpdates
30-Nov-2017 20:57 harro Added
01-Dec-2017 07:40 Anon. Updated [Operator]
01-Dec-2017 07:41 Anon. Updated [Operator, Source]
01-Dec-2017 07:42 harro Updated [Operator, Location, Narrative]

Corrections or additions? ... Edit this accident description